sensor_id;sensor_type;location;lat;lon;timestamp;temperature;humidity
13198;DHT22;6664;52.514;13.440;2023-02-26T00:02:10;-0.30;95.30
13198;DHT22;6664;52.514;13.440;2023-02-26T00:04:55;-0.30;95.10
13198;DHT22;6664;52.514;13.440;2023-02-26T00:07:44;-0.40;94.50
13198;DHT22;6664;52.514;13.440;2023-02-26T00:10:30;-0.40;93.30
13198;DHT22;6664;52.514;13.440;2023-02-26T00:13:16;-0.40;93.00
13198;DHT22;6664;52.514;13.440;2023-02-26T00:16:02;-0.30;92.80
13198;DHT22;6664;52.514;13.440;2023-02-26T00:18:54;-0.30;91.70
13198;DHT22;6664;52.514;13.440;2023-02-26T00:21:40;-0.30;91.50
13198;DHT22;6664;52.514;13.440;2023-02-26T00:24:25;-0.30;91.00
13198;DHT22;6664;52.514;13.440;2023-02-26T00:27:13;-0.30;90.40
13198;DHT22;6664;52.514;13.440;2023-02-26T00:29:59;-0.30;90.50
13198;DHT22;6664;52.514;13.440;2023-02-26T00:32:47;-0.20;90.20
13198;DHT22;6664;52.514;13.440;2023-02-26T00:35:33;-0.10;89.90
13198;DHT22;6664;52.514;13.440;2023-02-26T00:38:21;-0.10;87.90
13198;DHT22;6664;52.514;13.440;2023-02-26T00:41:07;-0.10;85.40
13198;DHT22;6664;52.514;13.440;2023-02-26T00:43:53;-0.10;85.80
13198;DHT22;6664;52.514;13.440;2023-02-26T00:52:51;0.00;82.00
13198;DHT22;6664;52.514;13.440;2023-02-26T00:55:38;0.00;81.10
13198;DHT22;6664;52.514;13.440;2023-02-26T00:58:23;0.10;80.70
13198;DHT22;6664;52.514;13.440;2023-02-26T01:01:09;0.10;79.70
13198;DHT22;6664;52.514;13.440;2023-02-26T01:03:58;0.20;78.90
13198;DHT22;6664;52.514;13.440;2023-02-26T01:06:51;0.20;78.30
13198;DHT22;6664;52.514;13.440;2023-02-26T01:09:40;0.30;77.20
13198;DHT22;6664;52.514;13.440;2023-02-26T01:12:26;0.30;74.60
13198;DHT22;6664;52.514;13.440;2023-02-26T01:15:12;0.30;73.80
13198;DHT22;6664;52.514;13.440;2023-02-26T01:18:05;0.40;73.80
13198;DHT22;6664;52.514;13.440;2023-02-26T01:21:03;0.40;74.10
13198;DHT22;6664;52.514;13.440;2023-02-26T01:23:53;0.50;73.80
13198;DHT22;6664;52.514;13.440;2023-02-26T01:26:39;0.50;72.10
13198;DHT22;6664;52.514;13.440;2023-02-26T01:29:25;0.50;72.00
13198;DHT22;6664;52.514;13.440;2023-02-26T01:44:13;0.40;68.60
13198;DHT22;6664;52.514;13.440;2023-02-26T01:50:20;0.40;68.20
13198;DHT22;6664;52.514;13.440;2023-02-26T01:53:22;0.50;67.00
13198;DHT22;6664;52.514;13.440;2023-02-26T01:56:15;0.50;67.20
13198;DHT22;6664;52.514;13.440;2023-02-26T01:59:04;0.50;66.30
13198;DHT22;6664;52.514;13.440;2023-02-26T02:01:55;0.50;64.90
13198;DHT22;6664;52.514;13.440;2023-02-26T02:04:43;0.60;65.00
13198;DHT22;6664;52.514;13.440;2023-02-26T02:07:31;0.60;64.90
13198;DHT22;6664;52.514;13.440;2023-02-26T02:10:17;0.60;63.30
13198;DHT22;6664;52.514;13.440;2023-02-26T02:16:39;0.60;62.70
13198;DHT22;6664;52.514;13.440;2023-02-26T02:20:05;0.60;60.80
13198;DHT22;6664;52.514;13.440;2023-02-26T02:33:15;0.60;59.70
13198;DHT22;6664;52.514;13.440;2023-02-26T02:39:36;0.70;58.30
13198;DHT22;6664;52.514;13.440;2023-02-26T02:42:34;0.60;56.90
13198;DHT22;6664;52.514;13.440;2023-02-26T02:45:39;0.60;56.50
13198;DHT22;6664;52.514;13.440;2023-02-26T02:49:17;0.70;57.20
13198;DHT22;6664;52.514;13.440;2023-02-26T02:55:06;0.60;56.10
13198;DHT22;6664;52.514;13.440;2023-02-26T02:58:02;0.60;56.10
13198;DHT22;6664;52.514;13.440;2023-02-26T03:00:52;0.60;56.20
13198;DHT22;6664;52.514;13.440;2023-02-26T03:03:42;0.60;56.20
13198;DHT22;6664;52.514;13.440;2023-02-26T03:06:29;0.50;55.70
13198;DHT22;6664;52.514;13.440;2023-02-26T03:09:14;0.50;56.20
13198;DHT22;6664;52.514;13.440;2023-02-26T03:12:00;0.50;55.70
13198;DHT22;6664;52.514;13.440;2023-02-26T03:14:48;0.50;55.40
13198;DHT22;6664;52.514;13.440;2023-02-26T03:20:40;0.50;55.70
13198;DHT22;6664;52.514;13.440;2023-02-26T03:23:42;0.50;54.80
13198;DHT22;6664;52.514;13.440;2023-02-26T03:26:46;0.50;55.10
13198;DHT22;6664;52.514;13.440;2023-02-26T03:29:38;0.50;55.20
13198;DHT22;6664;52.514;13.440;2023-02-26T03:33:24;0.40;54.80
13198;DHT22;6664;52.514;13.440;2023-02-26T03:38:51;0.40;55.10
13198;DHT22;6664;52.514;13.440;2023-02-26T03:41:51;0.50;55.00
13198;DHT22;6664;52.514;13.440;2023-02-26T03:44:43;0.50;54.80
13198;DHT22;6664;52.514;13.440;2023-02-26T03:47:34;0.50;54.90
13198;DHT22;6664;52.514;13.440;2023-02-26T03:50:43;0.50;54.70
13198;DHT22;6664;52.514;13.440;2023-02-26T03:53:38;0.50;54.80
13198;DHT22;6664;52.514;13.440;2023-02-26T03:56:28;0.50;54.80
13198;DHT22;6664;52.514;13.440;2023-02-26T03:59:16;0.50;54.40
13198;DHT22;6664;52.514;13.440;2023-02-26T04:02:18;0.50;54.80
13198;DHT22;6664;52.514;13.440;2023-02-26T04:05:16;0.50;54.20
13198;DHT22;6664;52.514;13.440;2023-02-26T04:08:03;0.50;53.60
13198;DHT22;6664;52.514;13.440;2023-02-26T04:10:58;0.60;53.00
13198;DHT22;6664;52.514;13.440;2023-02-26T04:13:47;0.50;53.30
13198;DHT22;6664;52.514;13.440;2023-02-26T04:16:34;0.50;53.30
13198;DHT22;6664;52.514;13.440;2023-02-26T04:19:20;0.50;52.90
13198;DHT22;6664;52.514;13.440;2023-02-26T04:22:05;0.50;53.10
13198;DHT22;6664;52.514;13.440;2023-02-26T04:24:50;0.50;52.40
13198;DHT22;6664;52.514;13.440;2023-02-26T04:27:36;0.60;52.60
13198;DHT22;6664;52.514;13.440;2023-02-26T04:30:21;0.60;52.10
13198;DHT22;6664;52.514;13.440;2023-02-26T04:33:07;0.60;52.00
13198;DHT22;6664;52.514;13.440;2023-02-26T04:35:52;0.60;51.90
13198;DHT22;6664;52.514;13.440;2023-02-26T04:38:38;0.60;51.60
13198;DHT22;6664;52.514;13.440;2023-02-26T04:41:23;0.60;51.00
13198;DHT22;6664;52.514;13.440;2023-02-26T04:44:09;0.60;51.20
13198;DHT22;6664;52.514;13.440;2023-02-26T04:46:55;0.60;51.00
13198;DHT22;6664;52.514;13.440;2023-02-26T04:49:40;0.70;51.00
13198;DHT22;6664;52.514;13.440;2023-02-26T04:52:25;0.60;49.90
13198;DHT22;6664;52.514;13.440;2023-02-26T04:55:12;0.70;50.00
13198;DHT22;6664;52.514;13.440;2023-02-26T04:57:57;0.60;49.40
13198;DHT22;6664;52.514;13.440;2023-02-26T05:00:42;0.60;49.10
13198;DHT22;6664;52.514;13.440;2023-02-26T05:03:28;0.70;49.40
13198;DHT22;6664;52.514;13.440;2023-02-26T05:06:13;0.60;48.80
13198;DHT22;6664;52.514;13.440;2023-02-26T05:08:59;0.70;48.80
13198;DHT22;6664;52.514;13.440;2023-02-26T05:11:47;0.70;48.50
13198;DHT22;6664;52.514;13.440;2023-02-26T05:14:35;0.70;48.00
13198;DHT22;6664;52.514;13.440;2023-02-26T05:17:23;0.70;47.70
13198;DHT22;6664;52.514;13.440;2023-02-26T05:20:08;0.70;47.50
13198;DHT22;6664;52.514;13.440;2023-02-26T05:22:54;0.70;47.00
13198;DHT22;6664;52.514;13.440;2023-02-26T05:25:42;0.70;46.60
13198;DHT22;6664;52.514;13.440;2023-02-26T05:28:28;0.70;46.70
13198;DHT22;6664;52.514;13.440;2023-02-26T05:31:14;0.70;46.70
13198;DHT22;6664;52.514;13.440;2023-02-26T05:34:00;0.70;46.60
13198;DHT22;6664;52.514;13.440;2023-02-26T05:36:45;0.70;46.60
13198;DHT22;6664;52.514;13.440;2023-02-26T05:39:31;0.70;46.00
13198;DHT22;6664;52.514;13.440;2023-02-26T05:42:16;0.70;45.60
13198;DHT22;6664;52.514;13.440;2023-02-26T05:45:02;0.70;45.30
13198;DHT22;6664;52.514;13.440;2023-02-26T05:47:52;0.80;45.10
13198;DHT22;6664;52.514;13.440;2023-02-26T05:50:38;0.70;44.90
13198;DHT22;6664;52.514;13.440;2023-02-26T05:53:23;0.70;44.90
13198;DHT22;6664;52.514;13.440;2023-02-26T05:56:09;0.80;44.70
13198;DHT22;6664;52.514;13.440;2023-02-26T05:58:55;0.80;44.80
13198;DHT22;6664;52.514;13.440;2023-02-26T06:01:40;0.80;44.40
13198;DHT22;6664;52.514;13.440;2023-02-26T06:04:27;0.80;44.30
13198;DHT22;6664;52.514;13.440;2023-02-26T06:07:12;0.80;43.90
13198;DHT22;6664;52.514;13.440;2023-02-26T06:09:58;0.80;43.80
13198;DHT22;6664;52.514;13.440;2023-02-26T06:12:46;0.80;43.50
13198;DHT22;6664;52.514;13.440;2023-02-26T06:15:32;0.80;43.40
13198;DHT22;6664;52.514;13.440;2023-02-26T06:18:17;0.80;43.20
13198;DHT22;6664;52.514;13.440;2023-02-26T06:21:04;0.80;42.80
13198;DHT22;6664;52.514;13.440;2023-02-26T06:23:49;0.80;42.80
13198;DHT22;6664;52.514;13.440;2023-02-26T06:26:35;0.90;42.80
13198;DHT22;6664;52.514;13.440;2023-02-26T06:29:21;0.90;42.70
13198;DHT22;6664;52.514;13.440;2023-02-26T06:32:07;0.80;42.20
13198;DHT22;6664;52.514;13.440;2023-02-26T06:34:55;0.80;42.30
13198;DHT22;6664;52.514;13.440;2023-02-26T06:37:40;0.80;42.60
13198;DHT22;6664;52.514;13.440;2023-02-26T06:40:29;0.90;42.20
13198;DHT22;6664;52.514;13.440;2023-02-26T06:43:15;1.00;41.90
13198;DHT22;6664;52.514;13.440;2023-02-26T06:46:00;1.00;41.50
13198;DHT22;6664;52.514;13.440;2023-02-26T06:48:46;1.00;40.80
13198;DHT22;6664;52.514;13.440;2023-02-26T06:51:31;1.00;40.80
13198;DHT22;6664;52.514;13.440;2023-02-26T06:54:16;1.00;40.30
13198;DHT22;6664;52.514;13.440;2023-02-26T06:57:02;0.90;40.30
13198;DHT22;6664;52.514;13.440;2023-02-26T06:59:48;0.90;40.00
13198;DHT22;6664;52.514;13.440;2023-02-26T07:02:35;1.00;40.30
13198;DHT22;6664;52.514;13.440;2023-02-26T07:05:21;1.10;40.20
13198;DHT22;6664;52.514;13.440;2023-02-26T07:08:07;1.10;40.10
13198;DHT22;6664;52.514;13.440;2023-02-26T07:10:55;1.20;40.90
13198;DHT22;6664;52.514;13.440;2023-02-26T07:13:41;1.30;39.50
13198;DHT22;6664;52.514;13.440;2023-02-26T07:16:26;1.20;39.60
13198;DHT22;6664;52.514;13.440;2023-02-26T07:19:13;1.10;39.60
13198;DHT22;6664;52.514;13.440;2023-02-26T07:22:00;0.90;40.00
13198;DHT22;6664;52.514;13.440;2023-02-26T07:24:46;0.70;40.50
13198;DHT22;6664;52.514;13.440;2023-02-26T07:27:32;0.60;41.00
13198;DHT22;6664;52.514;13.440;2023-02-26T07:30:18;0.70;41.30
13198;DHT22;6664;52.514;13.440;2023-02-26T07:33:06;0.60;41.10
13198;DHT22;6664;52.514;13.440;2023-02-26T07:35:52;0.60;41.40
13198;DHT22;6664;52.514;13.440;2023-02-26T07:38:38;0.50;41.70
13198;DHT22;6664;52.514;13.440;2023-02-26T07:41:26;0.50;41.70
13198;DHT22;6664;52.514;13.440;2023-02-26T07:44:12;0.40;41.90
13198;DHT22;6664;52.514;13.440;2023-02-26T07:47:00;0.40;42.40
13198;DHT22;6664;52.514;13.440;2023-02-26T07:49:46;0.40;42.10
13198;DHT22;6664;52.514;13.440;2023-02-26T07:52:32;0.50;41.80
13198;DHT22;6664;52.514;13.440;2023-02-26T07:55:19;0.60;42.00
13198;DHT22;6664;52.514;13.440;2023-02-26T07:58:05;0.70;41.40
13198;DHT22;6664;52.514;13.440;2023-02-26T08:00:50;0.80;41.00
13198;DHT22;6664;52.514;13.440;2023-02-26T08:03:39;0.70;41.00
13198;DHT22;6664;52.514;13.440;2023-02-26T08:06:27;0.70;41.30
13198;DHT22;6664;52.514;13.440;2023-02-26T08:09:16;0.60;41.10
13198;DHT22;6664;52.514;13.440;2023-02-26T08:12:03;0.60;41.00
13198;DHT22;6664;52.514;13.440;2023-02-26T08:14:48;0.60;40.50
13198;DHT22;6664;52.514;13.440;2023-02-26T08:17:36;0.60;40.80
13198;DHT22;6664;52.514;13.440;2023-02-26T08:20:24;0.60;40.50
13198;DHT22;6664;52.514;13.440;2023-02-26T08:23:32;0.60;40.00
13198;DHT22;6664;52.514;13.440;2023-02-26T08:26:18;0.70;39.80
13198;DHT22;6664;52.514;13.440;2023-02-26T08:29:07;0.80;39.90
13198;DHT22;6664;52.514;13.440;2023-02-26T08:31:53;0.80;40.20
13198;DHT22;6664;52.514;13.440;2023-02-26T08:34:39;0.80;39.90
13198;DHT22;6664;52.514;13.440;2023-02-26T08:37:24;0.80;39.90
13198;DHT22;6664;52.514;13.440;2023-02-26T08:40:10;0.90;40.00
13198;DHT22;6664;52.514;13.440;2023-02-26T08:43:01;0.90;39.70
13198;DHT22;6664;52.514;13.440;2023-02-26T08:45:51;0.90;39.40
13198;DHT22;6664;52.514;13.440;2023-02-26T08:48:39;0.90;39.70
13198;DHT22;6664;52.514;13.440;2023-02-26T08:51:24;1.00;39.10
13198;DHT22;6664;52.514;13.440;2023-02-26T08:54:11;1.00;39.30
13198;DHT22;6664;52.514;13.440;2023-02-26T08:56:57;1.10;39.00
13198;DHT22;6664;52.514;13.440;2023-02-26T08:59:43;1.00;39.00
13198;DHT22;6664;52.514;13.440;2023-02-26T09:02:28;1.10;37.70
13198;DHT22;6664;52.514;13.440;2023-02-26T09:05:16;1.10;37.40
13198;DHT22;6664;52.514;13.440;2023-02-26T09:08:02;1.10;37.50
13198;DHT22;6664;52.514;13.440;2023-02-26T09:10:48;1.10;36.30
13198;DHT22;6664;52.514;13.440;2023-02-26T09:13:34;1.20;36.90
13198;DHT22;6664;52.514;13.440;2023-02-26T09:16:19;1.20;36.70
13198;DHT22;6664;52.514;13.440;2023-02-26T09:19:05;1.40;36.60
13198;DHT22;6664;52.514;13.440;2023-02-26T09:21:51;1.40;36.20
13198;DHT22;6664;52.514;13.440;2023-02-26T09:24:37;1.40;35.20
13198;DHT22;6664;52.514;13.440;2023-02-26T09:27:23;1.50;35.80
13198;DHT22;6664;52.514;13.440;2023-02-26T09:30:10;1.40;35.20
13198;DHT22;6664;52.514;13.440;2023-02-26T09:32:56;1.50;35.20
13198;DHT22;6664;52.514;13.440;2023-02-26T09:35:41;1.50;34.80
13198;DHT22;6664;52.514;13.440;2023-02-26T09:38:27;1.50;34.40
13198;DHT22;6664;52.514;13.440;2023-02-26T09:41:38;1.50;34.60
13198;DHT22;6664;52.514;13.440;2023-02-26T09:44:33;1.50;34.30
13198;DHT22;6664;52.514;13.440;2023-02-26T09:47:25;1.60;34.30
13198;DHT22;6664;52.514;13.440;2023-02-26T09:53:16;1.80;32.40
13198;DHT22;6664;52.514;13.440;2023-02-26T09:56:20;1.80;31.90
13198;DHT22;6664;52.514;13.440;2023-02-26T09:59:08;1.90;31.40
13198;DHT22;6664;52.514;13.440;2023-02-26T10:02:37;1.90;30.20
13198;DHT22;6664;52.514;13.440;2023-02-26T10:05:40;2.00;30.10
13198;DHT22;6664;52.514;13.440;2023-02-26T10:08:41;2.20;29.10
13198;DHT22;6664;52.514;13.440;2023-02-26T10:11:56;2.70;29.00
13198;DHT22;6664;52.514;13.440;2023-02-26T10:18:11;2.80;26.20
13198;DHT22;6664;52.514;13.440;2023-02-26T10:21:12;2.20;26.20
13198;DHT22;6664;52.514;13.440;2023-02-26T10:24:03;2.10;26.20
13198;DHT22;6664;52.514;13.440;2023-02-26T10:26:59;2.00;26.20
13198;DHT22;6664;52.514;13.440;2023-02-26T10:30:20;2.00;26.30
13198;DHT22;6664;52.514;13.440;2023-02-26T10:36:51;2.20;26.70
13198;DHT22;6664;52.514;13.440;2023-02-26T10:42:27;2.40;26.10
13198;DHT22;6664;52.514;13.440;2023-02-26T10:51:11;2.40;23.10
13198;DHT22;6664;52.514;13.440;2023-02-26T10:56:48;2.60;21.20
13198;DHT22;6664;52.514;13.440;2023-02-26T10:59:34;2.70;20.10
13198;DHT22;6664;52.514;13.440;2023-02-26T11:02:42;2.80;19.20
13198;DHT22;6664;52.514;13.440;2023-02-26T11:05:31;3.10;18.30
13198;DHT22;6664;52.514;13.440;2023-02-26T11:08:27;3.50;17.80
13198;DHT22;6664;52.514;13.440;2023-02-26T11:11:50;3.70;16.40
13198;DHT22;6664;52.514;13.440;2023-02-26T11:14:42;4.20;16.00
13198;DHT22;6664;52.514;13.440;2023-02-26T11:17:28;4.50;14.80
13198;DHT22;6664;52.514;13.440;2023-02-26T11:20:38;4.20;14.10
13198;DHT22;6664;52.514;13.440;2023-02-26T11:23:28;4.40;14.80
13198;DHT22;6664;52.514;13.440;2023-02-26T11:26:18;4.20;13.80
13198;DHT22;6664;52.514;13.440;2023-02-26T11:29:15;4.10;14.30
13198;DHT22;6664;52.514;13.440;2023-02-26T11:32:02;4.00;13.30
13198;DHT22;6664;52.514;13.440;2023-02-26T11:34:51;3.90;14.00
13198;DHT22;6664;52.514;13.440;2023-02-26T11:37:46;4.50;12.20
13198;DHT22;6664;52.514;13.440;2023-02-26T11:40:38;5.10;11.50
13198;DHT22;6664;52.514;13.440;2023-02-26T11:43:32;4.90;10.60
13198;DHT22;6664;52.514;13.440;2023-02-26T11:46:23;4.80;11.00
13198;DHT22;6664;52.514;13.440;2023-02-26T11:49:14;4.50;12.00
13198;DHT22;6664;52.514;13.440;2023-02-26T11:52:15;4.00;12.30
13198;DHT22;6664;52.514;13.440;2023-02-26T11:55:05;4.30;12.40
13198;DHT22;6664;52.514;13.440;2023-02-26T11:58:00;4.90;11.20
13198;DHT22;6664;52.514;13.440;2023-02-26T12:00:53;5.40;10.70
13198;DHT22;6664;52.514;13.440;2023-02-26T12:03:42;5.60;10.20
13198;DHT22;6664;52.514;13.440;2023-02-26T12:06:32;5.20;10.70
13198;DHT22;6664;52.514;13.440;2023-02-26T12:09:18;4.90;10.80
13198;DHT22;6664;52.514;13.440;2023-02-26T12:15:20;4.20;12.50
13198;DHT22;6664;52.514;13.440;2023-02-26T12:37:34;4.70;11.60
13198;DHT22;6664;52.514;13.440;2023-02-26T12:41:04;4.90;10.60
13198;DHT22;6664;52.514;13.440;2023-02-26T12:43:55;5.00;9.30
13198;DHT22;6664;52.514;13.440;2023-02-26T12:47:01;5.70;8.80
13198;DHT22;6664;52.514;13.440;2023-02-26T13:09:06;4.80;7.90
13198;DHT22;6664;52.514;13.440;2023-02-26T13:21:06;14.30;1.00
13198;DHT22;6664;52.514;13.440;2023-02-26T13:24:06;9.80;1.00
13198;DHT22;6664;52.514;13.440;2023-02-26T13:26:54;7.40;1.00
13198;DHT22;6664;52.514;13.440;2023-02-26T13:29:47;6.80;1.00
13198;DHT22;6664;52.514;13.440;2023-02-26T13:32:36;6.00;2.40
13198;DHT22;6664;52.514;13.440;2023-02-26T13:35:33;5.80;3.50
13198;DHT22;6664;52.514;13.440;2023-02-26T13:51:49;6.10;1.00
13198;DHT22;6664;52.514;13.440;2023-02-26T13:54:47;6.40;1.30
13198;DHT22;6664;52.514;13.440;2023-02-26T14:00:33;5.40;2.90
13198;DHT22;6664;52.514;13.440;2023-02-26T14:03:32;5.30;4.00
13198;DHT22;6664;52.514;13.440;2023-02-26T14:15:28;10.30;1.00
13198;DHT22;6664;52.514;13.440;2023-02-26T14:18:24;8.30;1.00
13198;DHT22;6664;52.514;13.440;2023-02-26T14:24:37;6.80;1.00
13198;DHT22;6664;52.514;13.440;2023-02-26T14:27:35;6.20;1.00
13198;DHT22;6664;52.514;13.440;2023-02-26T14:30:32;5.90;1.00
13198;DHT22;6664;52.514;13.440;2023-02-26T14:33:25;5.60;1.00
13198;DHT22;6664;52.514;13.440;2023-02-26T14:36:23;5.20;1.60
13198;DHT22;6664;52.514;13.440;2023-02-26T14:39:35;5.00;2.50
13198;DHT22;6664;52.514;13.440;2023-02-26T14:42:36;4.70;3.30
13198;DHT22;6664;52.514;13.440;2023-02-26T14:45:36;4.90;4.00
13198;DHT22;6664;52.514;13.440;2023-02-26T14:48:23;5.10;3.70
13198;DHT22;6664;52.514;13.440;2023-02-26T14:58:15;4.40;1.00
13198;DHT22;6664;52.514;13.440;2023-02-26T15:01:06;4.40;1.00
13198;DHT22;6664;52.514;13.440;2023-02-26T15:04:22;4.20;1.20
13198;DHT22;6664;52.514;13.440;2023-02-26T15:07:34;3.90;2.40
13198;DHT22;6664;52.514;13.440;2023-02-26T15:25:56;4.50;2.20
13198;DHT22;6664;52.514;13.440;2023-02-26T15:28:42;4.60;2.60
13198;DHT22;6664;52.514;13.440;2023-02-26T15:31:40;4.40;2.70
13198;DHT22;6664;52.514;13.440;2023-02-26T15:34:29;4.40;2.90
13198;DHT22;6664;52.514;13.440;2023-02-26T15:37:23;4.50;3.30
13198;DHT22;6664;52.514;13.440;2023-02-26T15:40:12;4.30;1.70
13198;DHT22;6664;52.514;13.440;2023-02-26T15:42:59;4.00;2.80
13198;DHT22;6664;52.514;13.440;2023-02-26T15:45:50;3.90;3.50
13198;DHT22;6664;52.514;13.440;2023-02-26T15:48:37;3.80;3.80
13198;DHT22;6664;52.514;13.440;2023-02-26T15:51:26;3.70;4.30
13198;DHT22;6664;52.514;13.440;2023-02-26T15:54:20;3.40;5.00
13198;DHT22;6664;52.514;13.440;2023-02-26T15:57:07;3.20;5.50
13198;DHT22;6664;52.514;13.440;2023-02-26T16:00:00;3.00;6.00
13198;DHT22;6664;52.514;13.440;2023-02-26T16:02:55;2.90;6.80
13198;DHT22;6664;52.514;13.440;2023-02-26T16:05:47;2.80;7.20
13198;DHT22;6664;52.514;13.440;2023-02-26T16:08:35;2.60;7.60
13198;DHT22;6664;52.514;13.440;2023-02-26T16:11:23;2.50;8.80
13198;DHT22;6664;52.514;13.440;2023-02-26T16:14:22;2.40;8.70
13198;DHT22;6664;52.514;13.440;2023-02-26T16:17:13;2.30;8.90
13198;DHT22;6664;52.514;13.440;2023-02-26T16:20:10;2.20;9.40
13198;DHT22;6664;52.514;13.440;2023-02-26T16:23:01;2.00;10.20
13198;DHT22;6664;52.514;13.440;2023-02-26T16:25:59;2.00;10.60
13198;DHT22;6664;52.514;13.440;2023-02-26T16:28:47;1.80;11.20
13198;DHT22;6664;52.514;13.440;2023-02-26T16:31:34;1.80;11.80
13198;DHT22;6664;52.514;13.440;2023-02-26T16:34:35;1.70;12.20
13198;DHT22;6664;52.514;13.440;2023-02-26T16:45:55;1.60;13.60
13198;DHT22;6664;52.514;13.440;2023-02-26T16:49:05;1.50;14.00
13198;DHT22;6664;52.514;13.440;2023-02-26T16:51:55;1.40;15.00
13198;DHT22;6664;52.514;13.440;2023-02-26T16:54:42;1.30;15.20
13198;DHT22;6664;52.514;13.440;2023-02-26T16:57:35;1.30;15.40
13198;DHT22;6664;52.514;13.440;2023-02-26T17:00:27;1.30;15.90
13198;DHT22;6664;52.514;13.440;2023-02-26T17:03:18;1.30;16.10
13198;DHT22;6664;52.514;13.440;2023-02-26T17:06:09;1.20;16.50
13198;DHT22;6664;52.514;13.440;2023-02-26T17:09:01;1.20;16.80
13198;DHT22;6664;52.514;13.440;2023-02-26T17:11:50;1.00;17.00
13198;DHT22;6664;52.514;13.440;2023-02-26T17:15:00;0.90;17.20
13198;DHT22;6664;52.514;13.440;2023-02-26T17:17:47;1.10;17.40
13198;DHT22;6664;52.514;13.440;2023-02-26T17:20:34;1.20;17.40
13198;DHT22;6664;52.514;13.440;2023-02-26T17:23:30;1.40;17.40
13198;DHT22;6664;52.514;13.440;2023-02-26T17:26:16;1.50;17.30
13198;DHT22;6664;52.514;13.440;2023-02-26T17:29:01;1.60;17.40
13198;DHT22;6664;52.514;13.440;2023-02-26T17:31:47;1.70;17.50
13198;DHT22;6664;52.514;13.440;2023-02-26T17:34:33;1.80;17.40
13198;DHT22;6664;52.514;13.440;2023-02-26T17:37:19;1.90;17.10
13198;DHT22;6664;52.514;13.440;2023-02-26T17:40:33;2.00;17.00
13198;DHT22;6664;52.514;13.440;2023-02-26T17:43:21;2.00;16.80
13198;DHT22;6664;52.514;13.440;2023-02-26T17:46:09;2.10;16.70
13198;DHT22;6664;52.514;13.440;2023-02-26T17:48:56;2.00;16.80
13198;DHT22;6664;52.514;13.440;2023-02-26T17:51:44;1.90;17.00
13198;DHT22;6664;52.514;13.440;2023-02-26T17:54:30;1.70;17.40
13198;DHT22;6664;52.514;13.440;2023-02-26T17:57:17;1.50;17.30
13198;DHT22;6664;52.514;13.440;2023-02-26T18:00:04;1.20;17.90
13198;DHT22;6664;52.514;13.440;2023-02-26T18:02:50;1.10;18.80
13198;DHT22;6664;52.514;13.440;2023-02-26T18:05:59;1.00;19.50
13198;DHT22;6664;52.514;13.440;2023-02-26T18:09:04;0.80;19.80
13198;DHT22;6664;52.514;13.440;2023-02-26T18:11:52;0.80;20.80
13198;DHT22;6664;52.514;13.440;2023-02-26T18:14:43;0.60;20.80
13198;DHT22;6664;52.514;13.440;2023-02-26T18:17:29;0.60;21.00
13198;DHT22;6664;52.514;13.440;2023-02-26T18:20:19;0.60;21.00
13198;DHT22;6664;52.514;13.440;2023-02-26T18:23:11;0.60;21.60
13198;DHT22;6664;52.514;13.440;2023-02-26T18:25:58;0.70;21.60
13198;DHT22;6664;52.514;13.440;2023-02-26T18:28:44;0.60;21.80
13198;DHT22;6664;52.514;13.440;2023-02-26T18:31:30;0.50;21.80
13198;DHT22;6664;52.514;13.440;2023-02-26T18:34:20;0.40;22.10
13198;DHT22;6664;52.514;13.440;2023-02-26T18:37:08;0.40;22.60
13198;DHT22;6664;52.514;13.440;2023-02-26T18:39:54;0.20;22.60
13198;DHT22;6664;52.514;13.440;2023-02-26T18:42:40;0.20;23.40
13198;DHT22;6664;52.514;13.440;2023-02-26T18:45:28;0.10;23.30
13198;DHT22;6664;52.514;13.440;2023-02-26T18:48:16;0.10;24.10
13198;DHT22;6664;52.514;13.440;2023-02-26T18:51:02;0.10;24.00
13198;DHT22;6664;52.514;13.440;2023-02-26T18:53:48;0.00;23.40
13198;DHT22;6664;52.514;13.440;2023-02-26T18:56:52;-0.10;23.90
13198;DHT22;6664;52.514;13.440;2023-02-26T18:59:55;-0.10;24.60
13198;DHT22;6664;52.514;13.440;2023-02-26T19:02:42;0.00;24.50
13198;DHT22;6664;52.514;13.440;2023-02-26T19:05:31;-0.10;24.40
13198;DHT22;6664;52.514;13.440;2023-02-26T19:08:16;-0.30;24.70
13198;DHT22;6664;52.514;13.440;2023-02-26T19:11:02;-0.30;24.70
13198;DHT22;6664;52.514;13.440;2023-02-26T19:13:48;-0.40;24.80
13198;DHT22;6664;52.514;13.440;2023-02-26T19:16:36;-0.40;25.10
13198;DHT22;6664;52.514;13.440;2023-02-26T19:19:23;-0.40;25.50
13198;DHT22;6664;52.514;13.440;2023-02-26T19:22:09;-0.40;25.20
13198;DHT22;6664;52.514;13.440;2023-02-26T19:24:58;-0.50;25.30
13198;DHT22;6664;52.514;13.440;2023-02-26T19:27:43;-0.40;25.50
13198;DHT22;6664;52.514;13.440;2023-02-26T19:30:30;-0.40;25.00
13198;DHT22;6664;52.514;13.440;2023-02-26T19:33:16;-0.50;25.40
13198;DHT22;6664;52.514;13.440;2023-02-26T19:36:04;-0.60;25.90
13198;DHT22;6664;52.514;13.440;2023-02-26T19:38:51;-0.80;25.80
13198;DHT22;6664;52.514;13.440;2023-02-26T19:41:39;-0.70;26.70
13198;DHT22;6664;52.514;13.440;2023-02-26T19:44:28;-0.60;26.40
13198;DHT22;6664;52.514;13.440;2023-02-26T19:47:16;-0.80;26.60
13198;DHT22;6664;52.514;13.440;2023-02-26T19:50:01;-0.90;26.60
13198;DHT22;6664;52.514;13.440;2023-02-26T19:52:47;-0.90;27.30
13198;DHT22;6664;52.514;13.440;2023-02-26T19:55:33;-0.90;27.50
13198;DHT22;6664;52.514;13.440;2023-02-26T19:58:19;-0.90;27.40
13198;DHT22;6664;52.514;13.440;2023-02-26T20:01:05;-0.90;27.10
13198;DHT22;6664;52.514;13.440;2023-02-26T20:03:54;-1.00;27.30
13198;DHT22;6664;52.514;13.440;2023-02-26T20:06:39;-1.10;27.80
13198;DHT22;6664;52.514;13.440;2023-02-26T20:09:25;-1.00;28.00
13198;DHT22;6664;52.514;13.440;2023-02-26T20:12:13;-1.00;27.90
13198;DHT22;6664;52.514;13.440;2023-02-26T20:14:59;-1.00;27.60
13198;DHT22;6664;52.514;13.440;2023-02-26T20:17:45;-0.90;27.90
13198;DHT22;6664;52.514;13.440;2023-02-26T20:20:31;-0.90;27.80
13198;DHT22;6664;52.514;13.440;2023-02-26T20:23:19;-1.00;27.60
13198;DHT22;6664;52.514;13.440;2023-02-26T20:26:08;-0.80;27.80
13198;DHT22;6664;52.514;13.440;2023-02-26T20:28:56;-0.70;27.20
13198;DHT22;6664;52.514;13.440;2023-02-26T20:31:44;-0.80;27.10
13198;DHT22;6664;52.514;13.440;2023-02-26T20:34:32;-0.80;27.20
13198;DHT22;6664;52.514;13.440;2023-02-26T20:37:18;-0.90;27.40
13198;DHT22;6664;52.514;13.440;2023-02-26T20:40:07;-0.80;27.40
13198;DHT22;6664;52.514;13.440;2023-02-26T20:42:53;-0.90;27.60
13198;DHT22;6664;52.514;13.440;2023-02-26T20:45:39;-0.80;27.40
13198;DHT22;6664;52.514;13.440;2023-02-26T20:48:25;-0.80;27.40
13198;DHT22;6664;52.514;13.440;2023-02-26T20:51:13;-0.80;27.20
13198;DHT22;6664;52.514;13.440;2023-02-26T20:53:59;-0.90;27.40
13198;DHT22;6664;52.514;13.440;2023-02-26T20:56:45;-0.90;27.80
13198;DHT22;6664;52.514;13.440;2023-02-26T20:59:35;-0.90;27.80
13198;DHT22;6664;52.514;13.440;2023-02-26T21:02:21;-0.90;28.30
13198;DHT22;6664;52.514;13.440;2023-02-26T21:05:07;-0.90;28.10
13198;DHT22;6664;52.514;13.440;2023-02-26T21:08:14;-1.00;28.20
13198;DHT22;6664;52.514;13.440;2023-02-26T21:11:00;-1.00;28.20
13198;DHT22;6664;52.514;13.440;2023-02-26T21:13:46;-0.90;28.00